sensor_id;sensor_type;location;lat;lon;timestamp;P1;durP1;ratioP1;P2;durP2;ratioP2
27740;SDS011;15134;48.768;9.184;2023-08-06T00:00:47;1002.13;;;901.92;;
27740;SDS011;15134;48.768;9.184;2023-08-06T00:03:13;1002.20;;;901.83;;
27740;SDS011;15134;48.768;9.184;2023-08-06T00:05:41;1002.00;;;901.65;;
27740;SDS011;15134;48.768;9.184;2023-08-06T00:08:08;995.90;;;896.10;;
27740;SDS011;15134;48.768;9.184;2023-08-06T00:10:34;998.70;;;898.42;;
27740;SDS011;15134;48.768;9.184;2023-08-06T00:13:00;990.90;;;891.03;;
27740;SDS011;15134;48.768;9.184;2023-08-06T00:15:25;999.28;;;898.88;;
27740;SDS011;15134;48.768;9.184;2023-08-06T00:17:51;994.80;;;894.73;;
27740;SDS011;15134;48.768;9.184;2023-08-06T00:20:17;991.27;;;890.87;;
27740;SDS011;15134;48.768;9.184;2023-08-06T00:22:43;995.15;;;893.53;;
27740;SDS011;15134;48.768;9.184;2023-08-06T00:25:09;994.63;;;891.78;;
27740;SDS011;15134;48.768;9.184;2023-08-06T00:27:34;991.00;;;888.35;;
27740;SDS011;15134;48.768;9.184;2023-08-06T00:30:00;996.88;;;893.85;;
27740;SDS011;15134;48.768;9.184;2023-08-06T00:32:27;986.92;;;885.90;;
27740;SDS011;15134;48.768;9.184;2023-08-06T00:34:54;990.35;;;888.72;;
27740;SDS011;15134;48.768;9.184;2023-08-06T00:37:20;990.80;;;889.80;;
27740;SDS011;15134;48.768;9.184;2023-08-06T00:39:46;995.58;;;894.40;;
27740;SDS011;15134;48.768;9.184;2023-08-06T00:42:12;983.83;;;883.63;;
27740;SDS011;15134;48.768;9.184;2023-08-06T00:44:38;986.27;;;885.80;;
27740;SDS011;15134;48.768;9.184;2023-08-06T00:47:06;987.67;;;887.03;;
27740;SDS011;15134;48.768;9.184;2023-08-06T00:49:33;990.13;;;889.57;;
27740;SDS011;15134;48.768;9.184;2023-08-06T00:52:00;979.45;;;879.53;;
27740;SDS011;15134;48.768;9.184;2023-08-06T00:54:27;983.08;;;882.88;;
27740;SDS011;15134;48.768;9.184;2023-08-06T00:56:54;984.25;;;884.45;;
27740;SDS011;15134;48.768;9.184;2023-08-06T00:59:23;981.55;;;881.92;;
27740;SDS011;15134;48.768;9.184;2023-08-06T01:01:50;981.65;;;881.78;;
27740;SDS011;15134;48.768;9.184;2023-08-06T01:04:16;984.53;;;884.45;;
27740;SDS011;15134;48.768;9.184;2023-08-06T01:17:32;974.28;;;874.70;;
27740;SDS011;15134;48.768;9.184;2023-08-06T01:19:59;976.30;;;876.70;;
27740;SDS011;15134;48.768;9.184;2023-08-06T01:22:25;975.55;;;876.22;;
27740;SDS011;15134;48.768;9.184;2023-08-06T01:24:50;973.80;;;874.53;;
27740;SDS011;15134;48.768;9.184;2023-08-06T01:30:32;971.33;;;872.35;;
27740;SDS011;15134;48.768;9.184;2023-08-06T01:33:02;969.47;;;870.25;;
27740;SDS011;15134;48.768;9.184;2023-08-06T01:35:31;972.60;;;873.10;;
27740;SDS011;15134;48.768;9.184;2023-08-06T01:38:01;972.00;;;872.60;;
27740;SDS011;15134;48.768;9.184;2023-08-06T01:40:29;964.47;;;865.30;;
27740;SDS011;15134;48.768;9.184;2023-08-06T01:42:56;960.97;;;862.00;;
27740;SDS011;15134;48.768;9.184;2023-08-06T01:45:21;965.37;;;866.07;;
27740;SDS011;15134;48.768;9.184;2023-08-06T01:47:48;962.80;;;863.80;;
27740;SDS011;15134;48.768;9.184;2023-08-06T01:50:14;962.10;;;863.13;;
27740;SDS011;15134;48.768;9.184;2023-08-06T01:52:42;958.40;;;859.78;;
27740;SDS011;15134;48.768;9.184;2023-08-06T01:55:11;956.13;;;857.38;;
27740;SDS011;15134;48.768;9.184;2023-08-06T01:57:36;957.72;;;858.85;;
27740;SDS011;15134;48.768;9.184;2023-08-06T02:00:02;963.88;;;864.60;;
27740;SDS011;15134;48.768;9.184;2023-08-06T02:02:38;955.45;;;856.47;;
27740;SDS011;15134;48.768;9.184;2023-08-06T02:05:05;950.15;;;851.50;;
27740;SDS011;15134;48.768;9.184;2023-08-06T02:07:31;949.13;;;850.72;;
27740;SDS011;15134;48.768;9.184;2023-08-06T02:09:57;951.47;;;852.80;;
27740;SDS011;15134;48.768;9.184;2023-08-06T02:12:23;950.65;;;852.20;;
27740;SDS011;15134;48.768;9.184;2023-08-06T02:14:49;954.05;;;855.38;;
27740;SDS011;15134;48.768;9.184;2023-08-06T02:17:15;954.47;;;855.67;;
27740;SDS011;15134;48.768;9.184;2023-08-06T02:19:40;953.00;;;854.50;;
27740;SDS011;15134;48.768;9.184;2023-08-06T02:22:08;957.60;;;858.67;;
27740;SDS011;15134;48.768;9.184;2023-08-06T02:24:34;949.63;;;851.05;;
27740;SDS011;15134;48.768;9.184;2023-08-06T02:26:59;938.88;;;840.67;;
27740;SDS011;15134;48.768;9.184;2023-08-06T02:29:25;945.47;;;846.88;;
27740;SDS011;15134;48.768;9.184;2023-08-06T02:31:51;946.97;;;848.53;;
27740;SDS011;15134;48.768;9.184;2023-08-06T02:34:16;937.67;;;839.53;;
27740;SDS011;15134;48.768;9.184;2023-08-06T02:36:44;941.25;;;842.95;;
27740;SDS011;15134;48.768;9.184;2023-08-06T02:39:09;940.28;;;842.10;;
27740;SDS011;15134;48.768;9.184;2023-08-06T02:41:35;944.03;;;845.75;;
27740;SDS011;15134;48.768;9.184;2023-08-06T02:44:01;942.77;;;844.40;;
27740;SDS011;15134;48.768;9.184;2023-08-06T02:46:28;948.38;;;849.70;;
27740;SDS011;15134;48.768;9.184;2023-08-06T02:48:53;943.67;;;845.20;;
27740;SDS011;15134;48.768;9.184;2023-08-06T02:51:19;938.55;;;840.58;;
27740;SDS011;15134;48.768;9.184;2023-08-06T02:53:45;938.65;;;840.55;;
27740;SDS011;15134;48.768;9.184;2023-08-06T02:56:16;936.40;;;838.43;;
27740;SDS011;15134;48.768;9.184;2023-08-06T02:58:51;935.92;;;838.00;;
27740;SDS011;15134;48.768;9.184;2023-08-06T03:01:27;942.03;;;843.83;;
27740;SDS011;15134;48.768;9.184;2023-08-06T03:04:03;938.97;;;840.85;;
27740;SDS011;15134;48.768;9.184;2023-08-06T03:06:35;940.15;;;841.92;;
27740;SDS011;15134;48.768;9.184;2023-08-06T03:09:02;939.10;;;840.85;;
27740;SDS011;15134;48.768;9.184;2023-08-06T03:11:27;938.50;;;840.50;;
27740;SDS011;15134;48.768;9.184;2023-08-06T03:13:59;935.72;;;837.83;;
27740;SDS011;15134;48.768;9.184;2023-08-06T03:16:25;937.03;;;839.08;;
27740;SDS011;15134;48.768;9.184;2023-08-06T03:18:52;935.13;;;837.10;;
27740;SDS011;15134;48.768;9.184;2023-08-06T03:21:19;936.72;;;838.63;;
27740;SDS011;15134;48.768;9.184;2023-08-06T03:23:48;934.23;;;836.50;;
27740;SDS011;15134;48.768;9.184;2023-08-06T03:26:16;940.55;;;842.40;;
27740;SDS011;15134;48.768;9.184;2023-08-06T03:28:45;938.42;;;840.38;;
27740;SDS011;15134;48.768;9.184;2023-08-06T03:31:12;934.40;;;836.58;;
27740;SDS011;15134;48.768;9.184;2023-08-06T03:33:41;939.72;;;841.67;;
27740;SDS011;15134;48.768;9.184;2023-08-06T03:36:12;932.70;;;834.97;;
27740;SDS011;15134;48.768;9.184;2023-08-06T03:38:38;938.85;;;840.85;;
27740;SDS011;15134;48.768;9.184;2023-08-06T03:41:06;942.53;;;844.45;;
27740;SDS011;15134;48.768;9.184;2023-08-06T03:43:32;945.83;;;847.33;;
27740;SDS011;15134;48.768;9.184;2023-08-06T03:46:00;945.10;;;846.90;;
27740;SDS011;15134;48.768;9.184;2023-08-06T03:48:27;948.95;;;850.53;;
27740;SDS011;15134;48.768;9.184;2023-08-06T03:50:52;944.80;;;846.40;;
27740;SDS011;15134;48.768;9.184;2023-08-06T03:53:19;947.30;;;848.88;;
27740;SDS011;15134;48.768;9.184;2023-08-06T03:55:45;944.38;;;846.28;;
27740;SDS011;15134;48.768;9.184;2023-08-06T03:58:15;949.40;;;851.13;;
27740;SDS011;15134;48.768;9.184;2023-08-06T04:00:41;938.47;;;840.50;;
27740;SDS011;15134;48.768;9.184;2023-08-06T04:03:06;932.63;;;835.03;;
27740;SDS011;15134;48.768;9.184;2023-08-06T04:05:32;941.05;;;842.97;;
27740;SDS011;15134;48.768;9.184;2023-08-06T04:07:58;946.58;;;848.13;;
27740;SDS011;15134;48.768;9.184;2023-08-06T04:10:25;944.75;;;846.28;;
27740;SDS011;15134;48.768;9.184;2023-08-06T04:12:51;945.28;;;846.97;;
27740;SDS011;15134;48.768;9.184;2023-08-06T04:15:19;944.67;;;846.40;;
27740;SDS011;15134;48.768;9.184;2023-08-06T04:17:44;939.85;;;841.55;;
27740;SDS011;15134;48.768;9.184;2023-08-06T04:20:13;946.30;;;847.88;;
27740;SDS011;15134;48.768;9.184;2023-08-06T04:22:39;946.70;;;848.35;;
27740;SDS011;15134;48.768;9.184;2023-08-06T04:25:06;956.73;;;857.93;;
27740;SDS011;15134;48.768;9.184;2023-08-06T04:27:33;949.47;;;851.17;;
27740;SDS011;15134;48.768;9.184;2023-08-06T04:29:59;955.50;;;857.00;;
27740;SDS011;15134;48.768;9.184;2023-08-06T04:32:24;952.93;;;854.43;;
27740;SDS011;15134;48.768;9.184;2023-08-06T04:34:55;961.88;;;862.97;;
27740;SDS011;15134;48.768;9.184;2023-08-06T04:37:21;961.55;;;862.45;;
27740;SDS011;15134;48.768;9.184;2023-08-06T04:39:49;963.42;;;864.38;;
27740;SDS011;15134;48.768;9.184;2023-08-06T04:42:17;966.70;;;867.42;;
27740;SDS011;15134;48.768;9.184;2023-08-06T04:44:43;964.75;;;865.78;;
27740;SDS011;15134;48.768;9.184;2023-08-06T04:47:09;965.40;;;866.40;;
27740;SDS011;15134;48.768;9.184;2023-08-06T04:49:34;964.97;;;866.03;;
27740;SDS011;15134;48.768;9.184;2023-08-06T04:52:01;969.73;;;870.23;;
27740;SDS011;15134;48.768;9.184;2023-08-06T04:54:27;962.88;;;864.13;;
27740;SDS011;15134;48.768;9.184;2023-08-06T04:56:53;960.07;;;861.27;;
27740;SDS011;15134;48.768;9.184;2023-08-06T04:59:19;963.07;;;864.07;;
27740;SDS011;15134;48.768;9.184;2023-08-06T05:01:46;963.47;;;864.40;;
27740;SDS011;15134;48.768;9.184;2023-08-06T05:04:12;959.30;;;860.50;;
27740;SDS011;15134;48.768;9.184;2023-08-06T05:06:38;960.47;;;861.67;;
27740;SDS011;15134;48.768;9.184;2023-08-06T05:09:04;957.33;;;858.75;;
27740;SDS011;15134;48.768;9.184;2023-08-06T05:11:34;963.08;;;864.25;;
27740;SDS011;15134;48.768;9.184;2023-08-06T05:14:02;959.65;;;860.72;;
27740;SDS011;15134;48.768;9.184;2023-08-06T05:16:30;954.78;;;856.28;;
27740;SDS011;15134;48.768;9.184;2023-08-06T05:18:56;963.63;;;864.65;;
27740;SDS011;15134;48.768;9.184;2023-08-06T05:21:21;963.50;;;864.55;;
27740;SDS011;15134;48.768;9.184;2023-08-06T05:23:47;963.17;;;864.38;;
27740;SDS011;15134;48.768;9.184;2023-08-06T05:26:13;961.70;;;862.97;;
27740;SDS011;15134;48.768;9.184;2023-08-06T05:28:44;962.80;;;863.95;;
27740;SDS011;15134;48.768;9.184;2023-08-06T05:31:11;968.45;;;869.45;;
27740;SDS011;15134;48.768;9.184;2023-08-06T05:33:37;979.80;;;880.33;;
27740;SDS011;15134;48.768;9.184;2023-08-06T05:36:02;982.90;;;883.10;;
27740;SDS011;15134;48.768;9.184;2023-08-06T05:38:29;991.63;;;891.45;;
27740;SDS011;15134;48.768;9.184;2023-08-06T05:40:55;997.53;;;897.10;;
27740;SDS011;15134;48.768;9.184;2023-08-06T05:43:22;997.38;;;897.00;;
27740;SDS011;15134;48.768;9.184;2023-08-06T05:45:51;998.87;;;898.57;;
27740;SDS011;15134;48.768;9.184;2023-08-06T05:48:16;995.53;;;895.53;;
27740;SDS011;15134;48.768;9.184;2023-08-06T05:50:42;994.97;;;894.90;;
27740;SDS011;15134;48.768;9.184;2023-08-06T05:53:08;994.97;;;894.78;;
27740;SDS011;15134;48.768;9.184;2023-08-06T05:55:35;993.47;;;893.47;;
27740;SDS011;15134;48.768;9.184;2023-08-06T05:58:00;988.73;;;888.97;;
27740;SDS011;15134;48.768;9.184;2023-08-06T06:00:26;986.03;;;886.37;;
27740;SDS011;15134;48.768;9.184;2023-08-06T06:02:52;986.05;;;886.30;;
27740;SDS011;15134;48.768;9.184;2023-08-06T06:05:18;982.78;;;883.30;;
27740;SDS011;15134;48.768;9.184;2023-08-06T06:07:43;974.70;;;875.50;;
27740;SDS011;15134;48.768;9.184;2023-08-06T06:10:10;979.78;;;880.47;;
27740;SDS011;15134;48.768;9.184;2023-08-06T06:12:37;977.88;;;878.42;;
27740;SDS011;15134;48.768;9.184;2023-08-06T06:15:04;967.88;;;868.78;;
27740;SDS011;15134;48.768;9.184;2023-08-06T06:17:30;965.45;;;866.53;;
27740;SDS011;15134;48.768;9.184;2023-08-06T06:19:59;958.58;;;859.97;;
27740;SDS011;15134;48.768;9.184;2023-08-06T06:22:24;956.50;;;858.13;;
27740;SDS011;15134;48.768;9.184;2023-08-06T06:24:50;957.15;;;858.60;;
27740;SDS011;15134;48.768;9.184;2023-08-06T06:27:17;964.30;;;865.72;;
27740;SDS011;15134;48.768;9.184;2023-08-06T06:29:42;968.72;;;869.88;;
27740;SDS011;15134;48.768;9.184;2023-08-06T06:32:08;967.37;;;868.47;;
27740;SDS011;15134;48.768;9.184;2023-08-06T06:34:35;968.47;;;869.67;;
27740;SDS011;15134;48.768;9.184;2023-08-06T06:37:01;968.00;;;869.00;;
27740;SDS011;15134;48.768;9.184;2023-08-06T06:39:29;975.83;;;876.60;;
27740;SDS011;15134;48.768;9.184;2023-08-06T06:41:55;968.53;;;869.53;;
27740;SDS011;15134;48.768;9.184;2023-08-06T06:44:30;972.22;;;873.17;;
27740;SDS011;15134;48.768;9.184;2023-08-06T06:46:55;971.28;;;872.35;;
27740;SDS011;15134;48.768;9.184;2023-08-06T06:49:24;971.22;;;872.35;;
27740;SDS011;15134;48.768;9.184;2023-08-06T06:51:50;973.78;;;874.72;;
27740;SDS011;15134;48.768;9.184;2023-08-06T06:54:16;980.20;;;880.65;;
27740;SDS011;15134;48.768;9.184;2023-08-06T06:56:42;971.00;;;871.87;;
27740;SDS011;15134;48.768;9.184;2023-08-06T06:59:07;974.60;;;875.60;;
27740;SDS011;15134;48.768;9.184;2023-08-06T07:01:34;978.13;;;878.67;;
27740;SDS011;15134;48.768;9.184;2023-08-06T07:04:00;974.33;;;874.92;;
27740;SDS011;15134;48.768;9.184;2023-08-06T07:06:30;973.53;;;874.57;;
27740;SDS011;15134;48.768;9.184;2023-08-06T07:08:56;981.28;;;881.95;;
27740;SDS011;15134;48.768;9.184;2023-08-06T07:11:22;970.67;;;871.70;;
27740;SDS011;15134;48.768;9.184;2023-08-06T07:13:49;969.58;;;870.75;;
27740;SDS011;15134;48.768;9.184;2023-08-06T07:16:20;967.92;;;869.05;;
27740;SDS011;15134;48.768;9.184;2023-08-06T07:18:53;968.90;;;869.90;;
27740;SDS011;15134;48.768;9.184;2023-08-06T07:21:19;965.55;;;866.85;;
27740;SDS011;15134;48.768;9.184;2023-08-06T07:23:45;964.10;;;865.63;;
27740;SDS011;15134;48.768;9.184;2023-08-06T07:26:17;967.47;;;868.53;;
27740;SDS011;15134;48.768;9.184;2023-08-06T07:28:43;966.60;;;867.80;;
27740;SDS011;15134;48.768;9.184;2023-08-06T07:31:09;959.65;;;861.10;;
27740;SDS011;15134;48.768;9.184;2023-08-06T07:33:35;968.05;;;868.97;;
27740;SDS011;15134;48.768;9.184;2023-08-06T07:36:11;967.23;;;868.33;;
27740;SDS011;15134;48.768;9.184;2023-08-06T07:38:37;959.80;;;861.30;;
27740;SDS011;15134;48.768;9.184;2023-08-06T07:41:03;960.83;;;862.13;;
27740;SDS011;15134;48.768;9.184;2023-08-06T07:43:30;967.50;;;868.60;;
27740;SDS011;15134;48.768;9.184;2023-08-06T07:45:59;959.65;;;861.17;;
27740;SDS011;15134;48.768;9.184;2023-08-06T07:48:29;965.80;;;866.88;;
27740;SDS011;15134;48.768;9.184;2023-08-06T07:50:55;961.03;;;862.40;;
27740;SDS011;15134;48.768;9.184;2023-08-06T07:53:21;961.55;;;863.10;;
27740;SDS011;15134;48.768;9.184;2023-08-06T07:55:51;956.05;;;857.78;;
27740;SDS011;15134;48.768;9.184;2023-08-06T07:58:18;960.57;;;861.90;;
27740;SDS011;15134;48.768;9.184;2023-08-06T08:00:45;959.78;;;861.38;;
27740;SDS011;15134;48.768;9.184;2023-08-06T08:03:14;964.97;;;866.45;;
27740;SDS011;15134;48.768;9.184;2023-08-06T08:05:44;962.65;;;864.15;;
27740;SDS011;15134;48.768;9.184;2023-08-06T08:08:10;970.23;;;871.20;;
27740;SDS011;15134;48.768;9.184;2023-08-06T08:10:39;967.40;;;868.53;;
27740;SDS011;15134;48.768;9.184;2023-08-06T08:13:05;973.88;;;874.85;;
27740;SDS011;15134;48.768;9.184;2023-08-06T08:15:31;975.97;;;876.58;;
27740;SDS011;15134;48.768;9.184;2023-08-06T08:17:58;974.10;;;874.97;;
27740;SDS011;15134;48.768;9.184;2023-08-06T08:20:24;982.85;;;883.28;;
27740;SDS011;15134;48.768;9.184;2023-08-06T08:22:50;977.55;;;878.33;;
27740;SDS011;15134;48.768;9.184;2023-08-06T08:25:18;982.45;;;882.97;;
27740;SDS011;15134;48.768;9.184;2023-08-06T08:27:44;984.95;;;885.63;;
27740;SDS011;15134;48.768;9.184;2023-08-06T08:30:10;998.92;;;898.88;;
27740;SDS011;15134;48.768;9.184;2023-08-06T08:32:36;1000.87;;;900.50;;
27740;SDS011;15134;48.768;9.184;2023-08-06T08:35:02;1017.03;;;916.23;;
27740;SDS011;15134;48.768;9.184;2023-08-06T08:37:27;1031.20;;;929.53;;
27740;SDS011;15134;48.768;9.184;2023-08-06T08:39:56;1048.72;;;946.72;;
27740;SDS011;15134;48.768;9.184;2023-08-06T08:42:22;1047.17;;;945.17;;
27740;SDS011;15134;48.768;9.184;2023-08-06T08:44:48;1040.90;;;939.47;;
27740;SDS011;15134;48.768;9.184;2023-08-06T08:47:15;1044.80;;;943.00;;
27740;SDS011;15134;48.768;9.184;2023-08-06T08:49:41;1035.87;;;934.43;;
27740;SDS011;15134;48.768;9.184;2023-08-06T08:52:08;1026.88;;;925.90;;
27740;SDS011;15134;48.768;9.184;2023-08-06T08:54:38;1023.65;;;923.00;;
27740;SDS011;15134;48.768;9.184;2023-08-06T08:57:04;1022.97;;;921.88;;
27740;SDS011;15134;48.768;9.184;2023-08-06T08:59:32;1016.92;;;916.28;;
27740;SDS011;15134;48.768;9.184;2023-08-06T09:02:01;1008.88;;;908.58;;
27740;SDS011;15134;48.768;9.184;2023-08-06T09:04:28;1000.70;;;900.72;;
27740;SDS011;15134;48.768;9.184;2023-08-06T09:06:57;1006.95;;;906.67;;
27740;SDS011;15134;48.768;9.184;2023-08-06T09:09:31;1005.97;;;905.67;;
27740;SDS011;15134;48.768;9.184;2023-08-06T09:12:00;1004.50;;;904.30;;
27740;SDS011;15134;48.768;9.184;2023-08-06T09:14:27;1000.63;;;900.83;;
27740;SDS011;15134;48.768;9.184;2023-08-06T09:16:53;1010.50;;;910.20;;
27740;SDS011;15134;48.768;9.184;2023-08-06T09:19:20;1017.88;;;917.38;;
27740;SDS011;15134;48.768;9.184;2023-08-06T09:21:46;1023.00;;;922.15;;
27740;SDS011;15134;48.768;9.184;2023-08-06T09:24:15;1034.43;;;933.05;;
27740;SDS011;15134;48.768;9.184;2023-08-06T09:26:44;1027.33;;;926.47;;
27740;SDS011;15134;48.768;9.184;2023-08-06T09:29:10;1035.85;;;934.65;;
27740;SDS011;15134;48.768;9.184;2023-08-06T09:34:21;1048.00;;;946.00;;
27740;SDS011;15134;48.768;9.184;2023-08-06T09:39:17;1054.03;;;951.90;;
27740;SDS011;15134;48.768;9.184;2023-08-06T09:41:44;1036.13;;;934.95;;
27740;SDS011;15134;48.768;9.184;2023-08-06T09:44:19;1029.55;;;928.55;;
27740;SDS011;15134;48.768;9.184;2023-08-06T09:46:48;1026.50;;;925.65;;
27740;SDS011;15134;48.768;9.184;2023-08-06T09:49:15;1018.37;;;917.60;;
27740;SDS011;15134;48.768;9.184;2023-08-06T09:51:41;1013.50;;;913.08;;
27740;SDS011;15134;48.768;9.184;2023-08-06T09:54:07;1016.97;;;916.17;;
27740;SDS011;15134;48.768;9.184;2023-08-06T09:56:40;1018.63;;;917.83;;
27740;SDS011;15134;48.768;9.184;2023-08-06T09:59:07;1016.70;;;916.08;;
27740;SDS011;15134;48.768;9.184;2023-08-06T10:01:34;1012.70;;;912.10;;
27740;SDS011;15134;48.768;9.184;2023-08-06T10:04:04;1007.15;;;906.78;;
27740;SDS011;15134;48.768;9.184;2023-08-06T10:06:36;1006.20;;;905.87;;
27740;SDS011;15134;48.768;9.184;2023-08-06T10:09:03;1007.75;;;907.35;;
27740;SDS011;15134;48.768;9.184;2023-08-06T10:11:29;1009.20;;;908.88;;
27740;SDS011;15134;48.768;9.184;2023-08-06T10:14:10;1006.90;;;906.78;;
27740;SDS011;15134;48.768;9.184;2023-08-06T10:16:39;1006.80;;;906.42;;
27740;SDS011;15134;48.768;9.184;2023-08-06T10:19:07;1002.60;;;902.50;;
27740;SDS011;15134;48.768;9.184;2023-08-06T10:21:38;1001.17;;;900.97;;
27740;SDS011;15134;48.768;9.184;2023-08-06T10:24:06;997.38;;;897.15;;
27740;SDS011;15134;48.768;9.184;2023-08-06T10:26:38;995.63;;;895.78;;
27740;SDS011;15134;48.768;9.184;2023-08-06T10:32:01;998.67;;;898.70;;
27740;SDS011;15134;48.768;9.184;2023-08-06T10:37:22;992.83;;;893.13;;
27740;SDS011;15134;48.768;9.184;2023-08-06T10:40:02;984.92;;;885.33;;
27740;SDS011;15134;48.768;9.184;2023-08-06T10:42:31;982.95;;;883.47;;
27740;SDS011;15134;48.768;9.184;2023-08-06T10:45:15;982.87;;;883.47;;
27740;SDS011;15134;48.768;9.184;2023-08-06T10:47:42;990.20;;;890.53;;
27740;SDS011;15134;48.768;9.184;2023-08-06T10:50:11;990.92;;;891.33;;
27740;SDS011;15134;48.768;9.184;2023-08-06T10:52:39;986.40;;;887.10;;
27740;SDS011;15134;48.768;9.184;2023-08-06T10:55:05;988.92;;;889.42;;
27740;SDS011;15134;48.768;9.184;2023-08-06T10:57:31;989.88;;;889.95;;
27740;SDS011;15134;48.768;9.184;2023-08-06T10:59:57;988.33;;;888.65;;
27740;SDS011;15134;48.768;9.184;2023-08-06T11:02:23;991.17;;;891.60;;
27740;SDS011;15134;48.768;9.184;2023-08-06T11:04:48;985.63;;;886.37;;
27740;SDS011;15134;48.768;9.184;2023-08-06T11:07:14;982.80;;;883.72;;
27740;SDS011;15134;48.768;9.184;2023-08-06T11:09:40;986.35;;;886.95;;
27740;SDS011;15134;48.768;9.184;2023-08-06T11:12:17;992.43;;;893.03;;
27740;SDS011;15134;48.768;9.184;2023-08-06T11:14:49;980.50;;;881.42;;
27740;SDS011;15134;48.768;9.184;2023-08-06T11:17:15;984.33;;;884.80;;
27740;SDS011;15134;48.768;9.184;2023-08-06T11:19:41;988.80;;;889.27;;
27740;SDS011;15134;48.768;9.184;2023-08-06T11:22:07;985.73;;;886.30;;
27740;SDS011;15134;48.768;9.184;2023-08-06T11:24:34;990.20;;;890.47;;
27740;SDS011;15134;48.768;9.184;2023-08-06T11:27:10;993.88;;;894.25;;
27740;SDS011;15134;48.768;9.184;2023-08-06T11:29:45;983.65;;;884.17;;
27740;SDS011;15134;48.768;9.184;2023-08-06T11:32:13;979.65;;;880.55;;
27740;SDS011;15134;48.768;9.184;2023-08-06T11:34:39;978.45;;;879.35;;
27740;SDS011;15134;48.768;9.184;2023-08-06T11:37:06;972.28;;;873.47;;
27740;SDS011;15134;48.768;9.184;2023-08-06T11:39:34;980.45;;;881.08;;
27740;SDS011;15134;48.768;9.184;2023-08-06T11:42:04;975.73;;;876.63;;
27740;SDS011;15134;48.768;9.184;2023-08-06T11:44:31;978.13;;;879.23;;
27740;SDS011;15134;48.768;9.184;2023-08-06T11:47:00;973.30;;;874.53;;
27740;SDS011;15134;48.768;9.184;2023-08-06T11:49:41;970.75;;;872.03;;
27740;SDS011;15134;48.768;9.184;2023-08-06T11:52:22;965.90;;;867.38;;
27740;SDS011;15134;48.768;9.184;2023-08-06T11:55:02;969.47;;;870.67;;
27740;SDS011;15134;48.768;9.184;2023-08-06T11:57:31;970.20;;;871.53;;
27740;SDS011;15134;48.768;9.184;2023-08-06T12:00:07;968.13;;;869.63;;
27740;SDS011;15134;48.768;9.184;2023-08-06T12:02:43;960.10;;;861.72;;
27740;SDS011;15134;48.768;9.184;2023-08-06T12:05:13;961.22;;;862.75;;
27740;SDS011;15134;48.768;9.184;2023-08-06T12:07:45;962.40;;;863.95;;
27740;SDS011;15134;48.768;9.184;2023-08-06T12:10:20;970.47;;;871.67;;
27740;SDS011;15134;48.768;9.184;2023-08-06T12:12:47;967.80;;;869.03;;
27740;SDS011;15134;48.768;9.184;2023-08-06T12:15:13;959.07;;;860.67;;
27740;SDS011;15134;48.768;9.184;2023-08-06T12:17:39;957.38;;;858.95;;
27740;SDS011;15134;48.768;9.184;2023-08-06T12:20:05;958.30;;;859.80;;
27740;SDS011;15134;48.768;9.184;2023-08-06T12:22:32;958.53;;;860.15;;
27740;SDS011;15134;48.768;9.184;2023-08-06T12:25:12;960.63;;;862.10;;
27740;SDS011;15134;48.768;9.184;2023-08-06T12:27:42;949.55;;;851.65;;
27740;SDS011;15134;48.768;9.184;2023-08-06T12:30:10;947.05;;;849.35;;
27740;SDS011;15134;48.768;9.184;2023-08-06T12:32:37;953.10;;;854.93;;
27740;SDS011;15134;48.768;9.184;2023-08-06T12:35:04;952.58;;;854.38;;
27740;SDS011;15134;48.768;9.184;2023-08-06T12:37:32;948.20;;;850.40;;
27740;SDS011;15134;48.768;9.184;2023-08-06T12:39:58;947.73;;;849.93;;
27740;SDS011;15134;48.768;9.184;2023-08-06T12:42:23;949.57;;;851.63;;
27740;SDS011;15134;48.768;9.184;2023-08-06T12:44:49;951.85;;;853.85;;
27740;SDS011;15134;48.768;9.184;2023-08-06T12:47:18;958.90;;;860.50;;
27740;SDS011;15134;48.768;9.184;2023-08-06T12:49:45;962.65;;;864.05;;
27740;SDS011;15134;48.768;9.184;2023-08-06T12:52:11;968.75;;;870.15;;
27740;SDS011;15134;48.768;9.184;2023-08-06T12:54:42;978.55;;;879.65;;
27740;SDS011;15134;48.768;9.184;2023-08-06T12:57:09;976.40;;;877.22;;
27740;SDS011;15134;48.768;9.184;2023-08-06T12:59:35;970.83;;;872.17;;
27740;SDS011;15134;48.768;9.184;2023-08-06T13:02:04;975.97;;;877.13;;
27740;SDS011;15134;48.768;9.184;2023-08-06T13:04:30;976.00;;;877.30;;
27740;SDS011;15134;48.768;9.184;2023-08-06T13:06:58;980.95;;;881.72;;
27740;SDS011;15134;48.768;9.184;2023-08-06T13:09:23;973.67;;;874.97;;
27740;SDS011;15134;48.768;9.184;2023-08-06T13:11:51;970.22;;;871.63;;
27740;SDS011;15134;48.768;9.184;2023-08-06T13:14:16;973.83;;;875.22;;
27740;SDS011;15134;48.768;9.184;2023-08-06T13:16:42;978.92;;;880.13;;
27740;SDS011;15134;48.768;9.184;2023-08-06T13:19:09;979.38;;;880.20;;
27740;SDS011;15134;48.768;9.184;2023-08-06T13:21:57;975.47;;;876.75;;
27740;SDS011;15134;48.768;9.184;2023-08-06T13:24:26;982.33;;;883.28;;
27740;SDS011;15134;48.768;9.184;2023-08-06T13:26:52;979.60;;;880.75;;
27740;SDS011;15134;48.768;9.184;2023-08-06T13:29:18;978.03;;;879.08;;
27740;SDS011;15134;48.768;9.184;2023-08-06T13:31:44;981.42;;;882.53;;
27740;SDS011;15134;48.768;9.184;2023-08-06T13:34:10;980.30;;;881.40;;
27740;SDS011;15134;48.768;9.184;2023-08-06T13:36:36;986.53;;;887.30;;
27740;SDS011;15134;48.768;9.184;2023-08-06T13:39:02;991.93;;;892.53;;
27740;SDS011;15134;48.768;9.184;2023-08-06T13:41:28;987.50;;;888.15;;
27740;SDS011;15134;48.768;9.184;2023-08-06T13:43:54;983.78;;;884.70;;
27740;SDS011;15134;48.768;9.184;2023-08-06T13:46:20;986.70;;;887.40;;
27740;SDS011;15134;48.768;9.184;2023-08-06T13:48:46;986.47;;;887.20;;
27740;SDS011;15134;48.768;9.184;2023-08-06T13:51:15;970.57;;;872.20;;
27740;SDS011;15134;48.768;9.184;2023-08-06T13:53:42;980.88;;;881.67;;
27740;SDS011;15134;48.768;9.184;2023-08-06T13:56:08;973.70;;;874.97;;
27740;SDS011;15134;48.768;9.184;2023-08-06T13:58:35;974.13;;;875.58;;
27740;SDS011;15134;48.768;9.184;2023-08-06T14:01:01;977.70;;;879.00;;
27740;SDS011;15134;48.768;9.184;2023-08-06T14:03:27;975.40;;;876.50;;
27740;SDS011;15134;48.768;9.184;2023-08-06T14:05:53;976.15;;;877.25;;
27740;SDS011;15134;48.768;9.184;2023-08-06T14:08:23;967.97;;;869.45;;
27740;SDS011;15134;48.768;9.184;2023-08-06T14:10:50;972.25;;;873.65;;
27740;SDS011;15134;48.768;9.184;2023-08-06T14:13:19;973.97;;;875.25;;
27740;SDS011;15134;48.768;9.184;2023-08-06T14:15:46;969.47;;;871.03;;
27740;SDS011;15134;48.768;9.184;2023-08-06T14:18:12;971.80;;;873.33;;
27740;SDS011;15134;48.768;9.184;2023-08-06T14:20:39;967.20;;;868.58;;
27740;SDS011;15134;48.768;9.184;2023-08-06T14:23:05;974.03;;;875.40;;